createdAt,value
2019-03-20T00:00:00.458Z,98139.55
2019-03-20T00:02:26.382Z,98138.97
2019-03-20T00:04:52.197Z,98140.44
2019-03-20T00:07:18.158Z,98143.28
2019-03-20T00:09:43.966Z,98145.56
2019-03-20T00:12:09.793Z,98146.48
2019-03-20T00:14:35.717Z,98154.96
2019-03-20T00:17:03.954Z,98153.17
2019-03-20T00:19:29.265Z,98150.64
2019-03-20T00:21:55.294Z,98146.22
2019-03-20T00:24:21.116Z,98142.08
2019-03-20T00:26:46.925Z,98141.64
2019-03-20T00:29:12.849Z,98146.53
2019-03-20T00:31:38.659Z,98144.68
2019-03-20T00:34:04.478Z,98143.88
2019-03-20T00:36:30.312Z,98145.84
2019-03-20T00:38:56.151Z,98152.16
2019-03-20T00:41:21.953Z,98143.06
2019-03-20T00:43:47.790Z,98152.02
2019-03-20T00:46:13.626Z,98148.30
2019-03-20T00:48:39.432Z,98148.00
2019-03-20T00:51:05.245Z,98145.61
2019-03-20T00:53:31.056Z,98145.91
2019-03-20T00:55:56.972Z,98149.60
2019-03-20T00:58:22.784Z,98148.58
2019-03-20T01:00:48.704Z,98153.72
2019-03-20T01:03:14.505Z,98153.91
2019-03-20T01:05:40.327Z,98148.63
2019-03-20T01:08:06.154Z,98159.96
2019-03-20T01:10:32.080Z,98156.92
2019-03-20T01:12:57.892Z,98152.42
2019-03-20T01:15:23.720Z,98152.31
2019-03-20T01:17:49.531Z,98153.17
2019-03-20T01:20:16.865Z,98159.52
2019-03-20T01:22:42.775Z,98155.99
2019-03-20T01:25:09.609Z,98152.31
2019-03-20T01:27:35.424Z,98144.15
2019-03-20T01:30:01.233Z,98154.48
2019-03-20T01:32:27.155Z,98156.50
2019-03-20T01:34:53.069Z,98152.02
2019-03-20T01:37:18.912Z,98159.34
2019-03-20T01:39:45.042Z,98164.44
2019-03-20T01:42:10.871Z,98159.94
2019-03-20T01:44:36.791Z,98159.25
2019-03-20T01:47:02.732Z,98155.70
2019-03-20T01:49:28.556Z,98158.66
2019-03-20T01:51:54.479Z,98159.75
2019-03-20T01:54:20.278Z,98160.62
2019-03-20T01:56:46.112Z,98158.85
2019-03-20T01:59:11.918Z,98154.66
2019-03-20T02:01:37.722Z,98158.52
2019-03-20T02:04:03.562Z,98158.99
2019-03-20T02:06:29.377Z,98156.93
2019-03-20T02:08:55.811Z,98159.64
2019-03-20T02:11:21.633Z,98158.99
2019-03-20T02:13:47.450Z,98161.41
2019-03-20T02:16:13.270Z,98155.59
2019-03-20T02:18:39.192Z,98167.85
2019-03-20T02:21:05.016Z,98165.73
2019-03-20T02:23:30.847Z,98164.75
2019-03-20T02:25:56.671Z,98165.56
2019-03-20T02:28:22.495Z,98173.14
2019-03-20T02:30:48.326Z,98172.64
2019-03-20T02:33:14.142Z,98166.83
2019-03-20T02:35:51.530Z,98165.13
2019-03-20T02:38:07.679Z,98172.17
2019-03-20T02:40:33.523Z,98175.42
2019-03-20T02:42:59.325Z,98179.25
2019-03-20T02:45:25.240Z,98179.47
2019-03-20T02:47:51.154Z,98172.95
2019-03-20T02:50:16.968Z,98177.95
2019-03-20T02:52:42.794Z,98179.50
2019-03-20T02:55:09.512Z,98181.91
2019-03-20T02:57:35.338Z,98177.14
2019-03-20T03:00:02.047Z,98181.05
2019-03-20T03:02:27.863Z,98178.34
2019-03-20T03:04:53.678Z,98186.45
2019-03-20T03:07:19.514Z,98187.76
2019-03-20T03:09:45.367Z,98186.72
2019-03-20T03:12:11.196Z,98186.45
2019-03-20T03:14:37.014Z,98186.50
2019-03-20T03:17:03.060Z,98188.86
2019-03-20T03:19:28.868Z,98181.02
2019-03-20T03:21:54.792Z,98181.91
2019-03-20T03:24:20.619Z,98186.29
2019-03-20T03:26:46.453Z,98185.20
2019-03-20T03:29:12.285Z,98187.34
2019-03-20T03:31:38.323Z,98186.73
2019-03-20T03:34:04.153Z,98184.91
2019-03-20T03:36:29.956Z,98189.55
2019-03-20T03:38:55.798Z,98179.59
2019-03-20T03:41:21.643Z,98180.72
2019-03-20T03:43:47.489Z,98187.47
2019-03-20T03:46:13.338Z,98179.55
2019-03-20T03:48:39.168Z,98180.70
2019-03-20T03:51:05.006Z,98182.42
2019-03-20T03:53:30.915Z,98188.44
2019-03-20T03:55:56.797Z,98187.00
2019-03-20T03:58:22.665Z,98195.91
2019-03-20T04:00:48.494Z,98194.56
2019-03-20T04:03:14.287Z,98194.46
2019-03-20T04:05:40.113Z,98193.91
2019-03-20T04:08:05.929Z,98195.48
2019-03-20T04:10:31.767Z,98197.73
2019-03-20T04:12:57.698Z,98202.13
2019-03-20T04:15:23.523Z,98204.20
2019-03-20T04:17:49.363Z,98204.41
2019-03-20T04:20:17.610Z,98206.80
2019-03-20T04:22:43.543Z,98212.94
2019-03-20T04:25:10.344Z,98209.92
2019-03-20T04:27:36.178Z,98210.80
2019-03-20T04:30:04.305Z,98215.72
2019-03-20T04:32:30.139Z,98215.70
2019-03-20T04:34:55.951Z,98215.02
2019-03-20T04:37:21.788Z,98209.67
2019-03-20T04:39:47.736Z,98215.19
2019-03-20T04:42:13.529Z,98215.28
2019-03-20T04:44:39.397Z,98213.81
2019-03-20T04:47:05.224Z,98217.15
2019-03-20T04:49:31.083Z,98219.95
2019-03-20T04:51:56.931Z,98222.31
2019-03-20T04:54:22.769Z,98230.62
2019-03-20T04:56:48.571Z,98226.75
2019-03-20T04:59:14.430Z,98232.35
2019-03-20T05:01:40.246Z,98235.95
2019-03-20T05:04:06.078Z,98230.06
2019-03-20T05:06:31.909Z,98240.23
2019-03-20T05:08:57.757Z,98247.48
2019-03-20T05:11:23.580Z,98244.32
2019-03-20T05:13:49.401Z,98244.41
2019-03-20T05:16:15.248Z,98252.09
2019-03-20T05:18:41.067Z,98250.56
2019-03-20T05:21:06.889Z,98254.30
2019-03-20T05:23:32.729Z,98252.59
2019-03-20T05:25:58.563Z,98252.50
2019-03-20T05:28:24.392Z,98252.70
2019-03-20T05:30:50.241Z,98259.41
2019-03-20T05:33:16.066Z,98259.41
2019-03-20T05:35:41.905Z,98265.19
2019-03-20T05:38:08.013Z,98265.44
2019-03-20T05:40:33.861Z,98264.53
2019-03-20T05:42:59.683Z,98267.40
2019-03-20T05:45:25.487Z,98271.30
2019-03-20T05:47:51.341Z,98275.50
2019-03-20T05:50:17.159Z,98276.83
2019-03-20T05:52:43.146Z,98285.52
2019-03-20T05:55:09.083Z,98285.61
2019-03-20T05:57:34.930Z,98281.20
2019-03-20T06:00:00.747Z,98285.02
2019-03-20T06:02:26.562Z,98290.58
2019-03-20T06:04:52.405Z,98292.44
2019-03-20T06:07:21.740Z,98292.17
2019-03-20T06:09:45.946Z,98295.23
2019-03-20T06:12:11.767Z,98300.55
2019-03-20T06:14:37.610Z,98309.22
2019-03-20T06:17:03.433Z,98313.12
2019-03-20T06:19:29.254Z,98319.08
2019-03-20T06:21:55.082Z,98324.36
2019-03-20T06:24:20.914Z,98326.45
2019-03-20T06:26:46.750Z,98332.95
2019-03-20T06:29:12.598Z,98331.23
2019-03-20T06:31:38.407Z,98334.60
2019-03-20T06:34:04.216Z,98330.65
2019-03-20T06:36:30.063Z,98334.39
2019-03-20T06:38:55.883Z,98331.76
2019-03-20T06:41:21.740Z,98338.95
2019-03-20T06:43:47.637Z,98335.91
2019-03-20T06:46:13.472Z,98336.77
2019-03-20T06:48:39.289Z,98334.91
2019-03-20T06:51:05.101Z,98338.08
2019-03-20T06:53:30.946Z,98339.96
2019-03-20T06:55:56.771Z,98339.12
2019-03-20T06:58:22.597Z,98340.19
2019-03-20T07:01:01.248Z,98347.63
2019-03-20T07:03:39.645Z,98350.86
2019-03-20T07:06:09.284Z,98351.64
2019-03-20T07:08:47.748Z,98359.37
2019-03-20T07:11:13.870Z,98357.47
2019-03-20T07:13:39.678Z,98359.66
2019-03-20T07:16:05.484Z,98349.30
2019-03-20T07:18:31.404Z,98355.48
2019-03-20T07:20:57.230Z,98354.16
2019-03-20T07:23:23.046Z,98368.93
2019-03-20T07:25:48.851Z,98370.76
2019-03-20T07:28:14.672Z,98373.82
2019-03-20T07:30:40.472Z,98370.12
2019-03-20T07:33:06.296Z,98369.94
2019-03-20T07:35:32.122Z,98377.62
2019-03-20T07:37:57.959Z,98375.87
2019-03-20T07:40:23.783Z,98379.84
2019-03-20T07:42:49.886Z,98384.28
2019-03-20T07:45:15.716Z,98385.53
2019-03-20T07:47:41.547Z,98385.93
2019-03-20T07:50:07.578Z,98389.52
2019-03-20T07:52:33.383Z,98387.80
2019-03-20T07:54:59.216Z,98400.47
2019-03-20T07:57:25.041Z,98402.34
2019-03-20T07:59:50.870Z,98408.81
2019-03-20T08:02:16.680Z,98407.14
2019-03-20T08:04:42.526Z,98409.56
2019-03-20T08:07:08.338Z,98408.84
2019-03-20T08:09:34.213Z,98401.58
2019-03-20T08:12:00.087Z,98414.27
2019-03-20T08:14:25.898Z,98413.42
2019-03-20T08:16:51.716Z,98415.70
2019-03-20T08:19:17.536Z,98412.97
2019-03-20T08:21:43.389Z,98411.32
2019-03-20T08:24:09.193Z,98406.33
2019-03-20T08:26:35.009Z,98409.88
2019-03-20T08:29:00.812Z,98411.06
2019-03-20T08:31:26.644Z,98408.83
2019-03-20T08:33:52.454Z,98406.89
2019-03-20T08:36:18.287Z,98403.27
2019-03-20T08:38:44.399Z,98408.95
2019-03-20T08:41:10.235Z,98412.24
2019-03-20T08:43:36.062Z,98407.63
2019-03-20T08:46:01.904Z,98413.31
2019-03-20T08:48:27.732Z,98411.41
2019-03-20T08:50:53.550Z,98415.16
2019-03-20T08:53:19.391Z,98415.55
2019-03-20T08:55:45.249Z,98413.62
2019-03-20T08:58:11.084Z,98418.06
2019-03-20T09:00:37.010Z,98418.56
2019-03-20T09:03:02.852Z,98421.81
2019-03-20T09:05:28.680Z,98420.54
2019-03-20T09:07:54.516Z,98416.89
2019-03-20T09:10:22.848Z,98421.33
2019-03-20T09:12:48.676Z,98426.09
2019-03-20T09:15:15.313Z,98418.84
2019-03-20T09:17:41.252Z,98430.85
2019-03-20T09:20:19.961Z,98430.85
2019-03-20T09:22:46.063Z,98427.40
2019-03-20T09:25:19.137Z,98423.70
2019-03-20T09:27:44.960Z,98433.02
2019-03-20T09:30:20.920Z,98433.02
2019-03-20T09:32:46.725Z,98431.25
2019-03-20T09:35:12.550Z,98428.38
2019-03-20T09:37:38.370Z,98438.70
2019-03-20T09:40:07.832Z,98443.39
2019-03-20T09:42:33.640Z,98447.10
2019-03-20T09:44:59.466Z,98432.64
2019-03-20T09:47:25.291Z,98446.52
2019-03-20T09:49:51.216Z,98442.02
2019-03-20T09:52:17.041Z,98442.59
2019-03-20T09:54:42.862Z,98453.16
2019-03-20T09:57:08.688Z,98452.36
2019-03-20T09:59:34.521Z,98444.58
2019-03-20T10:02:02.780Z,98445.38
2019-03-20T10:04:28.093Z,98459.43
2019-03-20T10:06:53.917Z,98459.43
2019-03-20T10:09:19.755Z,98450.78
2019-03-20T10:11:45.577Z,98451.55
2019-03-20T10:14:11.377Z,98448.98
2019-03-20T10:16:37.199Z,98451.41
2019-03-20T10:19:03.010Z,98453.84
2019-03-20T10:21:28.837Z,98450.44
2019-03-20T10:23:54.654Z,98454.73
2019-03-20T10:26:20.466Z,98452.22
2019-03-20T10:28:46.283Z,98453.48
2019-03-20T10:31:12.088Z,98447.45
2019-03-20T10:33:37.915Z,98449.35
2019-03-20T10:36:03.728Z,98451.22
2019-03-20T10:38:29.553Z,98449.13
2019-03-20T10:40:55.381Z,98445.17
2019-03-20T10:43:21.186Z,98440.42
2019-03-20T10:45:47.013Z,98440.69
2019-03-20T10:48:12.858Z,98437.84
2019-03-20T10:50:38.681Z,98447.07
2019-03-20T10:53:04.501Z,98446.02
2019-03-20T10:55:30.317Z,98443.91
2019-03-20T10:57:56.351Z,98441.16
2019-03-20T11:00:24.747Z,98439.47
2019-03-20T11:02:50.667Z,98440.77
2019-03-20T11:05:17.307Z,98440.77
2019-03-20T11:07:43.236Z,98438.95
2019-03-20T11:10:14.930Z,98447.14
2019-03-20T11:12:40.768Z,98442.12
2019-03-20T11:15:15.005Z,98438.96
2019-03-20T11:17:40.877Z,98439.95
2019-03-20T11:20:12.074Z,98439.95
2019-03-20T11:22:37.911Z,98444.50
2019-03-20T11:25:06.938Z,98447.14
2019-03-20T11:27:33.410Z,98443.61
2019-03-20T11:29:59.399Z,98443.61
2019-03-20T11:32:25.234Z,98438.37
2019-03-20T11:34:51.045Z,98428.84
2019-03-20T11:37:16.895Z,98424.69
2019-03-20T11:39:42.995Z,98429.98
2019-03-20T11:42:08.805Z,98426.02
2019-03-20T11:44:34.638Z,98420.75
2019-03-20T11:47:00.456Z,98424.41
2019-03-20T11:49:26.282Z,98419.11
2019-03-20T11:51:52.081Z,98426.41
2019-03-20T11:54:17.898Z,98424.78
2019-03-20T11:56:43.703Z,98422.95
2019-03-20T11:59:09.519Z,98420.77
2019-03-20T12:01:35.335Z,98420.44
2019-03-20T12:04:01.181Z,98413.02
2019-03-20T12:06:26.989Z,98410.62
2019-03-20T12:08:52.793Z,98408.41
2019-03-20T12:11:18.619Z,98404.27
2019-03-20T12:13:44.428Z,98396.97
2019-03-20T12:16:10.268Z,98395.64
2019-03-20T12:18:36.085Z,98388.73
2019-03-20T12:21:02.210Z,98391.41
2019-03-20T12:23:28.041Z,98393.95
2019-03-20T12:25:53.865Z,98384.53
2019-03-20T12:28:19.668Z,98387.94
2019-03-20T12:30:45.504Z,98383.92
2019-03-20T12:33:11.350Z,98372.39
2019-03-20T12:35:41.465Z,98373.98
2019-03-20T12:38:14.425Z,98377.89
2019-03-20T12:40:35.118Z,98380.09
2019-03-20T12:43:00.977Z,98370.03
2019-03-20T12:45:37.031Z,98366.45
2019-03-20T12:48:04.360Z,98370.82
2019-03-20T12:50:30.197Z,98336.38
2019-03-20T12:52:56.342Z,98364.77
2019-03-20T12:55:22.161Z,98365.62
2019-03-20T12:57:47.996Z,98364.30
2019-03-20T13:00:27.160Z,98366.14
2019-03-20T13:02:52.198Z,98371.16
2019-03-20T13:05:18.715Z,98359.16
2019-03-20T13:07:44.988Z,98358.72
2019-03-20T13:10:12.916Z,98357.64
2019-03-20T13:12:38.767Z,98358.06
2019-03-20T13:15:08.209Z,98358.06
2019-03-20T13:17:34.064Z,98368.52
2019-03-20T13:19:59.899Z,98371.13
2019-03-20T13:22:25.743Z,98359.84
2019-03-20T13:24:51.584Z,98360.72
2019-03-20T13:27:17.419Z,98359.12
2019-03-20T13:29:43.276Z,98357.49
2019-03-20T13:32:09.094Z,98357.84
2019-03-20T13:34:34.986Z,98350.59
2019-03-20T13:37:00.800Z,98349.57
2019-03-20T13:39:26.644Z,98345.01
2019-03-20T13:41:52.493Z,98340.97
2019-03-20T13:44:18.336Z,98339.03
2019-03-20T13:46:44.163Z,98340.91
2019-03-20T13:49:09.997Z,98336.92
2019-03-20T13:51:35.824Z,98336.41
2019-03-20T13:54:01.649Z,98338.27
2019-03-20T13:56:27.477Z,98333.20
2019-03-20T13:58:53.307Z,98337.95
2019-03-20T14:01:19.129Z,98335.84
2019-03-20T14:03:44.955Z,98340.61
2019-03-20T14:06:10.794Z,98340.00
2019-03-20T14:08:36.924Z,98339.27
2019-03-20T14:11:02.765Z,98333.42
2019-03-20T14:13:28.689Z,98333.02
2019-03-20T14:15:54.517Z,98338.76
2019-03-20T14:18:20.334Z,98342.67
2019-03-20T14:20:46.179Z,98341.15
2019-03-20T14:23:11.991Z,98333.91
2019-03-20T14:25:37.882Z,98337.05
2019-03-20T14:28:03.698Z,98328.38
2019-03-20T14:30:32.848Z,98330.75
2019-03-20T14:32:58.661Z,98327.33
2019-03-20T14:35:24.650Z,98334.80
2019-03-20T14:37:50.646Z,98338.81
2019-03-20T14:40:35.325Z,98336.78
2019-03-20T14:42:57.124Z,98337.35
2019-03-20T14:45:23.029Z,98340.70
2019-03-20T14:47:48.856Z,98331.50
2019-03-20T14:50:19.748Z,98335.27
2019-03-20T14:52:45.587Z,98332.14
2019-03-20T14:55:12.626Z,98337.95
2019-03-20T14:57:38.441Z,98336.00
2019-03-20T15:00:08.149Z,98333.89
2019-03-20T15:02:34.017Z,98338.24
2019-03-20T15:04:59.822Z,98338.20
2019-03-20T15:07:25.644Z,98327.75
2019-03-20T15:09:51.483Z,98333.05
2019-03-20T15:12:17.307Z,98329.02
2019-03-20T15:14:43.136Z,98324.47
2019-03-20T15:17:08.951Z,98325.82
2019-03-20T15:19:34.775Z,98326.41
2019-03-20T15:22:00.587Z,98329.70
2019-03-20T15:24:26.535Z,98332.00
2019-03-20T15:26:52.316Z,98328.98
2019-03-20T15:29:18.156Z,98332.31
2019-03-20T15:31:44.007Z,98328.30
2019-03-20T15:34:09.842Z,98326.67
2019-03-20T15:36:35.649Z,98318.80
2019-03-20T15:39:01.470Z,98325.77
2019-03-20T15:41:27.308Z,98317.80
2019-03-20T15:44:02.122Z,98325.02
2019-03-20T15:46:20.894Z,98330.80
2019-03-20T15:48:46.726Z,98330.88
2019-03-20T15:51:12.547Z,98330.66
2019-03-20T15:53:38.374Z,98327.30
2019-03-20T15:56:04.309Z,98323.44
2019-03-20T15:58:30.155Z,98314.16
2019-03-20T16:00:55.995Z,98319.03
2019-03-20T16:03:31.765Z,98325.01
2019-03-20T16:05:57.620Z,98316.53
2019-03-20T16:08:23.422Z,98316.53
2019-03-20T16:10:49.262Z,98319.31
2019-03-20T16:13:15.100Z,98315.83
2019-03-20T16:15:40.934Z,98312.33
2019-03-20T16:18:06.760Z,98317.25
2019-03-20T16:20:32.591Z,98316.16
2019-03-20T16:22:58.422Z,98318.80
2019-03-20T16:25:24.246Z,98316.94
2019-03-20T16:27:50.068Z,98319.94
2019-03-20T16:30:24.299Z,98322.17
2019-03-20T16:32:50.244Z,98305.41
2019-03-20T16:35:16.256Z,98305.41
2019-03-20T16:37:42.086Z,98304.95
2019-03-20T16:40:14.136Z,98304.95
2019-03-20T16:42:40.086Z,98325.73
2019-03-20T16:45:09.694Z,98325.73
2019-03-20T16:47:35.557Z,98322.38
2019-03-20T16:50:01.644Z,98322.38
2019-03-20T16:52:27.510Z,98327.75
2019-03-20T16:54:53.345Z,98327.52
2019-03-20T16:57:19.183Z,98330.97
2019-03-20T16:59:45.025Z,98334.08
2019-03-20T17:02:10.867Z,98336.49
2019-03-20T17:04:36.707Z,98331.25
2019-03-20T17:07:02.635Z,98330.70
2019-03-20T17:09:28.474Z,98347.59
2019-03-20T17:11:54.303Z,98346.83
2019-03-20T17:14:20.372Z,98341.52
2019-03-20T17:16:46.253Z,98338.63
2019-03-20T17:19:12.083Z,98338.63
2019-03-20T17:21:37.891Z,98333.33
2019-03-20T17:24:03.714Z,98340.73
2019-03-20T17:26:29.518Z,98341.56
2019-03-20T17:28:55.342Z,98342.64
2019-03-20T17:31:21.174Z,98345.80
2019-03-20T17:33:47.053Z,98352.42
2019-03-20T17:36:12.863Z,98343.95
2019-03-20T17:38:38.680Z,98349.78
2019-03-20T17:41:04.517Z,98350.84
2019-03-20T17:43:30.326Z,98339.72
2019-03-20T17:45:56.245Z,98337.91
2019-03-20T17:48:22.051Z,98338.38
2019-03-20T17:50:47.866Z,98331.00
2019-03-20T17:53:13.685Z,98325.41
2019-03-20T17:55:39.498Z,98329.13
2019-03-20T17:58:05.321Z,98337.23
2019-03-20T18:00:42.421Z,98350.57
2019-03-20T18:03:08.449Z,98346.57
2019-03-20T18:05:34.631Z,98347.86
2019-03-20T18:08:00.483Z,98352.61
2019-03-20T18:10:26.297Z,98359.19
2019-03-20T18:12:52.137Z,98354.33
2019-03-20T18:15:18.049Z,98365.16
2019-03-20T18:17:43.880Z,98364.57
2019-03-20T18:20:12.202Z,98370.44
2019-03-20T18:22:38.057Z,98375.47
2019-03-20T18:25:06.865Z,98382.02
2019-03-20T18:27:32.702Z,98381.12
2019-03-20T18:29:58.546Z,98378.06
2019-03-20T18:32:24.429Z,98384.98
2019-03-20T18:34:50.226Z,98388.96
2019-03-20T18:37:16.059Z,98385.25
2019-03-20T18:39:41.895Z,98385.07
2019-03-20T18:42:09.503Z,98384.14
2019-03-20T18:44:35.468Z,98384.70
2019-03-20T18:47:01.301Z,98392.75
2019-03-20T18:49:27.134Z,98382.55
2019-03-20T18:51:53.064Z,98379.21
2019-03-20T18:54:18.918Z,98380.13
2019-03-20T18:56:44.751Z,98380.81
2019-03-20T18:59:10.609Z,98381.55
2019-03-20T19:01:36.442Z,98377.77
2019-03-20T19:04:02.396Z,98378.41
2019-03-20T19:06:29.014Z,98384.38
2019-03-20T19:08:54.958Z,98393.05
2019-03-20T19:11:20.814Z,98391.03
2019-03-20T19:13:46.648Z,98394.84
2019-03-20T19:16:12.502Z,98395.51
2019-03-20T19:18:38.312Z,98406.41
2019-03-20T19:21:04.265Z,98402.06
2019-03-20T19:23:30.095Z,98399.20
2019-03-20T19:25:55.921Z,98402.89
2019-03-20T19:28:21.768Z,98400.78
2019-03-20T19:30:47.609Z,98405.94
2019-03-20T19:33:13.419Z,98415.05
2019-03-20T19:35:39.351Z,98412.62
2019-03-20T19:38:05.180Z,98412.34
2019-03-20T19:40:31.016Z,98419.25
2019-03-20T19:42:56.874Z,98425.94
2019-03-20T19:45:22.719Z,98419.02
2019-03-20T19:47:48.565Z,98423.33
2019-03-20T19:50:21.335Z,98423.13
2019-03-20T19:52:47.199Z,98428.55
2019-03-20T19:55:16.435Z,98423.74
2019-03-20T19:57:42.289Z,98420.53
2019-03-20T20:00:20.649Z,98421.39
2019-03-20T20:02:46.515Z,98423.72
2019-03-20T20:05:15.921Z,98423.72
2019-03-20T20:07:40.625Z,98424.25
2019-03-20T20:10:13.539Z,98424.25
2019-03-20T20:12:39.393Z,98422.93
2019-03-20T20:15:09.034Z,98421.92
2019-03-20T20:17:34.904Z,98420.16
2019-03-20T20:20:00.840Z,98416.48
2019-03-20T20:22:26.669Z,98417.41
2019-03-20T20:24:52.529Z,98419.33
2019-03-20T20:27:18.387Z,98422.02
2019-03-20T20:29:44.252Z,98408.78
2019-03-20T20:32:10.108Z,98420.83
2019-03-20T20:34:36.011Z,98420.83
2019-03-20T20:37:01.948Z,98421.06
2019-03-20T20:39:27.805Z,98417.47
2019-03-20T20:41:53.650Z,98421.67
2019-03-20T20:44:19.496Z,98426.57
2019-03-20T20:46:45.337Z,98426.82
2019-03-20T20:49:11.168Z,98427.90
2019-03-20T20:51:37.004Z,98430.94
2019-03-20T20:54:02.945Z,98431.02
2019-03-20T20:56:28.763Z,98436.05
2019-03-20T20:58:54.605Z,98440.59
2019-03-20T21:01:20.438Z,98445.39
2019-03-20T21:03:46.268Z,98448.08
2019-03-20T21:06:12.137Z,98446.70
2019-03-20T21:08:37.954Z,98436.53
2019-03-20T21:11:03.809Z,98446.87
2019-03-20T21:13:29.643Z,98441.80
2019-03-20T21:15:55.492Z,98450.05
2019-03-20T21:18:46.299Z,98449.48
2019-03-20T21:21:12.138Z,98440.63
2019-03-20T21:23:58.160Z,98447.28
2019-03-20T21:26:33.787Z,98449.77
2019-03-20T21:29:35.218Z,98448.80
2019-03-20T21:32:04.861Z,98453.13
2019-03-20T21:34:50.188Z,98460.61
2019-03-20T21:37:36.629Z,98464.31
2019-03-20T21:40:05.595Z,98465.41
2019-03-20T21:42:51.848Z,98470.40
2019-03-20T21:45:42.745Z,98475.71
2019-03-20T21:48:08.587Z,98477.17
2019-03-20T21:51:00.794Z,98479.70
2019-03-20T21:53:33.229Z,98474.12
2019-03-20T21:56:37.862Z,98485.00
2019-03-20T21:59:07.508Z,98477.75
2019-03-20T22:01:59.496Z,98486.70
2019-03-20T22:04:25.331Z,98486.09
2019-03-20T22:07:08.336Z,98483.66
2019-03-20T22:09:49.906Z,98477.48
2019-03-20T22:12:34.453Z,98483.08
2019-03-20T22:15:15.818Z,98483.89
2019-03-20T22:17:50.830Z,98486.84
2019-03-20T22:20:29.037Z,98494.08
2019-03-20T22:23:04.406Z,98492.18
2019-03-20T22:25:36.803Z,98488.48
2019-03-20T22:28:06.433Z,98493.63
2019-03-20T22:30:32.272Z,98485.66
2019-03-20T22:33:35.325Z,98481.17
2019-03-20T22:36:01.284Z,98487.98
2019-03-20T22:38:46.159Z,98479.88
2019-03-20T22:41:31.035Z,98477.34
2019-03-20T22:43:58.656Z,98479.95
2019-03-20T22:46:37.131Z,98476.39
2019-03-20T22:49:18.637Z,98484.63
2019-03-20T22:52:15.119Z,98481.02
2019-03-20T22:55:01.389Z,98481.06
2019-03-20T22:57:47.851Z,98482.11
2019-03-20T23:00:13.681Z,98473.72
2019-03-20T23:02:49.253Z,98472.19
2019-03-20T23:05:15.085Z,98470.40
2019-03-20T23:07:40.901Z,98460.83
2019-03-20T23:10:16.147Z,98466.41
2019-03-20T23:12:42.372Z,98465.88
2019-03-20T23:15:14.163Z,98465.06
2019-03-20T23:17:40.017Z,98464.50
2019-03-20T23:20:09.644Z,98473.73
2019-03-20T23:22:35.459Z,98470.95
2019-03-20T23:25:01.280Z,98474.05
2019-03-20T23:27:27.105Z,98475.87
2019-03-20T23:29:52.939Z,98482.38
2019-03-20T23:32:18.850Z,98480.98
2019-03-20T23:34:44.740Z,98482.75
2019-03-20T23:37:10.580Z,98479.42
2019-03-20T23:39:36.395Z,98473.73
2019-03-20T23:42:02.557Z,98474.36
2019-03-20T23:44:28.394Z,98476.75
2019-03-20T23:46:54.413Z,98475.25
2019-03-20T23:49:23.034Z,98472.28
2019-03-20T23:51:48.878Z,98472.06
2019-03-20T23:54:17.396Z,98472.92
2019-03-20T23:56:43.218Z,98469.31
2019-03-20T23:59:09.040Z,98478.16
